MSC Bettina — HPFG — position and weather

sailwx.info

Track history (hours):
 
Tides and Currents Weather Stations Pressure Air Temp Water Temp Dewpoint Dewpoint Depression Visibility Wind Speed Wind Dir Waves Ship Positions

MSC Bettina

Last reported at 2017-Jul-26 09:45 UTC. Time now 2017-Jul-27 18:26 UTC.
Position N 22°38' E 113°42'.

Length 366 m; draft 12.6 m.

Type: Ship (hazmat cat A). MMSI: 352361000.

Date/timePositionNaut miles runAvg speedWind from/ knotsBaromVisibWave heightAir tempDewpointWater temp
2017-Jul-26 09:45N 22°38' E 113°42'23110.6
2017-Jul-25 11:57N 23°30' E 117°46'1713.4
2017-Jul-25 10:41N 23°40' E 118°02'212.6
2017-Jul-25 10:30N 23°41' E 118°03'713.2
2017-Jul-25 10:00N 23°46' E 118°08'814.0
2017-Jul-25 09:25N 23°53' E 118°13'614.1
2017-Jul-25 09:00N 23°58' E 118°17'713.1
2017-Jul-25 08:30N 24°04' E 118°19'713.9
2017-Jul-25 08:00N 24°11' E 118°19'815.4
2017-Jul-25 07:30N 24°17' E 118°14'715.0
2017-Jul-25 07:00N 24°22' E 118°08'611.5
2017-Jul-25 06:30N 24°26' E 118°03'2 4.0
2017-Jul-25 06:00N 24°27' E 118°01'0 0.0
2017-Jul-25 05:30N 24°27' E 118°01'0 0.0
2017-Jul-25 05:00N 24°27' E 118°01'0 0.0
2017-Jul-25 04:30N 24°27' E 118°01'0 0.0
2017-Jul-25 04:00N 24°27' E 118°01'0 0.0
2017-Jul-25 03:30N 24°27' E 118°01'0 0.0
2017-Jul-25 03:00N 24°27' E 118°01'0 0.0
2017-Jul-25 02:30N 24°27' E 118°01'0 0.0
2017-Jul-25 02:00N 24°27' E 118°01'0 0.0
2017-Jul-25 01:30N 24°27' E 118°01'0 0.0
2017-Jul-25 01:00N 24°27' E 118°01'0 0.0
2017-Jul-25 00:30N 24°27' E 118°01'0 0.0
2017-Jul-25 00:00N 24°27' E 118°01'0 0.0
2017-Jul-24 23:30N 24°27' E 118°01'0 0.0
2017-Jul-24 23:00N 24°27' E 118°01'0 0.0
2017-Jul-24 22:27N 24°27' E 118°01'0 0.0
2017-Jul-24 22:00N 24°27' E 118°01'0 0.0
2017-Jul-24 21:30N 24°27' E 118°01'0 0.0
2017-Jul-24 21:00N 24°27' E 118°01'0 0.3
2017-Jul-24 20:31N 24°27' E 118°01'3 5.5
2017-Jul-24 20:01N 24°26' E 118°04'510.4
2017-Jul-24 19:31N 24°22' E 118°08'5 9.7
2017-Jul-24 19:00N 24°19' E 118°12'4 8.4
2017-Jul-24 18:30N 24°16' E 118°15'4 8.3
2017-Jul-24 18:00N 24°12' E 118°18'3 6.3
2017-Jul-24 17:30N 24°11' E 118°21'4 7.4
2017-Jul-24 17:00N 24°13' E 118°25'610.7
2017-Jul-24 16:28N 24°14' E 118°31'612.3
2017-Jul-24 16:00N 24°16' E 118°37'3612.0
2017-Jul-24 13:00N 24°35' E 119°11'712.7
2017-Jul-24 12:28N 24°39' E 119°16'612.5
2017-Jul-24 12:00N 24°43' E 119°21'612.8
2017-Jul-24 11:30N 24°48' E 119°26'612.7
2017-Jul-24 11:00N 24°52' E 119°31'612.9
2017-Jul-24 10:30N 24°56' E 119°36'713.4
2017-Jul-24 09:58N 25°01' E 119°42'714.1
2017-Jul-24 09:28N 25°06' E 119°47'813.9
2017-Jul-24 08:54N 25°12' E 119°54'614.2
2017-Jul-24 08:31N 25°16' E 119°58'23016.3
2017-Jul-23 18:25N 28°25' E 122°25'1118.1
2017-Jul-23 17:48N 28°34' E 122°32'618.9
2017-Jul-23 17:29N 28°40' E 122°35'1418.1
2017-Jul-23 16:43N 28°52' E 122°42'417.0
2017-Jul-23 16:29N 28°55' E 122°44'1017.8
2017-Jul-23 15:55N 29°04' E 122°50'1118.3
2017-Jul-23 15:19N 29°14' E 122°56'516.7
2017-Jul-23 15:00N 29°19' E 122°59'1117.7
2017-Jul-23 14:23N 29°28' E 123°05'2616.7
2017-Jul-23 12:48N 29°54' E 123°10'517.7
2017-Jul-23 12:30N 29°60' E 123°09'917.7
2017-Jul-23 12:00N 30°08' E 123°06'918.0
2017-Jul-23 11:30N 30°16' E 123°02'918.3
2017-Jul-23 11:00N 30°22' E 122°54'918.7
2017-Jul-23 10:30N 30°28' E 122°45'918.1
2017-Jul-23 10:00N 30°29' E 122°35'1019.4
2017-Jul-23 09:28N 30°32' E 122°23'715.0
2017-Jul-23 09:00N 30°33' E 122°15'816.2
2017-Jul-23 08:30N 30°36' E 122°06'3 4.9
2017-Jul-23 07:54N 30°37' E 122°04'0 0.0
2017-Jul-22 19:38N 30°37' E 122°04'0 0.0
2017-Jul-22 18:35N 30°37' E 122°04'0 0.6
2017-Jul-22 18:30N 30°37' E 122°04'1 2.1
2017-Jul-22 17:59N 30°37' E 122°04'2 5.1
2017-Jul-22 17:30N 30°35' E 122°07'510.4
2017-Jul-22 17:00N 30°34' E 122°13'4 7.3
2017-Jul-22 16:30N 30°33' E 122°17'4 7.5
2017-Jul-22 16:00N 30°34' E 122°21'1 3.0
2017-Jul-22 15:30N 30°34' E 122°23'2 3.3
2017-Jul-22 15:01N 30°33' E 122°25'5 4.5
2017-Jul-22 14:00N 30°33' E 122°30'1 2.5
2017-Jul-22 13:30N 30°32' E 122°31'2 4.4
2017-Jul-22 13:00N 30°31' E 122°33'4 7.9
2017-Jul-22 12:30N 30°30' E 122°38'4 7.6
2017-Jul-22 12:00N 30°30' E 122°42'4 7.0
2017-Jul-22 11:30N 30°28' E 122°46'4 7.1
2017-Jul-22 11:00N 30°26' E 122°49'3 6.5
2017-Jul-22 10:30N 30°23' E 122°51'3 6.3
2017-Jul-22 10:00N 30°20' E 122°53'3 6.0
2017-Jul-22 09:28N 30°18' E 122°55'4 6.2
2017-Jul-22 08:54N 30°15' E 122°58'3 7.2
2017-Jul-22 08:30N 30°13' E 123°00'3 6.8
2017-Jul-22 08:00N 30°10' E 123°01'3 5.9
2017-Jul-22 07:30N 30°07' E 122°60'3 6.0
2017-Jul-22 07:00N 30°05' E 122°58'3 6.1
2017-Jul-22 06:30N 30°02' E 122°56'3 6.1
2017-Jul-22 06:00N 29°60' E 122°54'3 6.0
2017-Jul-22 05:30N 29°57' E 122°52'3 6.2
2017-Jul-22 05:00N 29°55' E 122°50'3 6.5
2017-Jul-22 04:30N 29°52' E 122°47'3 6.9
2017-Jul-22 04:00N 29°49' E 122°45'4 7.2
2017-Jul-22 03:30N 29°47' E 122°42'4 7.0
2017-Jul-22 03:00N 29°44' E 122°39'4 7.5
2017-Jul-22 02:30N 29°42' E 122°36'3 6.6
2017-Jul-22 02:00N 29°41' E 122°32'4 7.3
2017-Jul-22 01:30N 29°42' E 122°28'612.7
2017-Jul-22 01:00N 29°43' E 122°21'510.9
2017-Jul-22 00:31N 29°47' E 122°16'510.6
2017-Jul-22 00:00N 29°51' E 122°12'612.1
2017-Jul-21 23:30N 29°55' E 122°08'5 9.3
2017-Jul-21 23:00N 29°54' E 122°03'0 0.7
2017-Jul-21 22:28N 29°54' E 122°02'0 0.0
2017-Jul-21 21:58N 29°54' E 122°02'0 0.0
2017-Jul-21 21:28N 29°54' E 122°02'0 0.0
2017-Jul-21 20:58N 29°54' E 122°02'0 0.0
2017-Jul-21 20:28N 29°54' E 122°02'0 0.0
2017-Jul-21 19:58N 29°54' E 122°02'0 0.0
2017-Jul-21 19:28N 29°54' E 122°02'0 0.0
2017-Jul-21 18:58N 29°54' E 122°02'0 0.0
2017-Jul-21 18:28N 29°54' E 122°02'0 0.0
2017-Jul-21 17:58N 29°54' E 122°02'0 0.0
2017-Jul-21 17:28N 29°54' E 122°02'0 0.0
2017-Jul-21 16:52N 29°54' E 122°02'0 0.0
2017-Jul-21 16:22N 29°54' E 122°02'0 0.0
2017-Jul-21 15:58N 29°54' E 122°02'0 0.0
2017-Jul-21 15:22N 29°54' E 122°02'0 0.0
2017-Jul-21 14:52N 29°54' E 122°02'0 0.0
2017-Jul-21 14:28N 29°54' E 122°02'0 0.0
2017-Jul-21 13:58N 29°54' E 122°02'0 0.0
2017-Jul-21 13:28N 29°54' E 122°02'0 0.0
2017-Jul-21 12:58N 29°54' E 122°02'0 0.0
2017-Jul-21 12:28N 29°54' E 122°02'0 0.0
2017-Jul-21 11:52N 29°54' E 122°02'0 0.0
2017-Jul-21 11:22N 29°54' E 122°02'0 0.0
2017-Jul-21 10:46N 29°54' E 122°02'0 0.0
2017-Jul-21 10:28N 29°54' E 122°02'0 0.0
2017-Jul-21 09:58N 29°54' E 122°02'0 0.0
2017-Jul-21 09:28N 29°54' E 122°02'0 0.0
2017-Jul-21 08:58N 29°54' E 122°02'0 0.0
2017-Jul-21 08:28N 29°54' E 122°02'0 0.0
2017-Jul-21 07:55N 29°54' E 122°02'0 0.0
2017-Jul-21 07:28N 29°54' E 122°02'0 0.0
2017-Jul-21 06:40N 29°54' E 122°02'0 0.0
2017-Jul-21 06:28N 29°54' E 122°02'0 0.0
2017-Jul-21 05:40N 29°54' E 122°02'0 0.0
2017-Jul-21 05:28N 29°54' E 122°02'0 0.0
2017-Jul-21 04:58N 29°54' E 122°02'0 0.0
2017-Jul-21 04:28N 29°54' E 122°02'0 0.0
2017-Jul-21 03:46N 29°54' E 122°02'0 0.0
2017-Jul-21 03:28N 29°54' E 122°02'0 0.0
2017-Jul-21 02:58N 29°54' E 122°02'0 0.0
2017-Jul-21 02:28N 29°54' E 122°02'0 0.0
2017-Jul-21 01:58N 29°54' E 122°02'0 0.0
2017-Jul-21 01:28N 29°54' E 122°02'0 0.0
2017-Jul-21 00:46N 29°54' E 122°02'0 0.0
2017-Jul-21 00:30N 29°54' E 122°02'1 1.7
2017-Jul-21 00:00N 29°54' E 122°03'4 8.7
2017-Jul-20 23:30N 29°55' E 122°08'612.3
2017-Jul-20 23:00N 29°51' E 122°12'612.1
2017-Jul-20 22:31N 29°46' E 122°17'4 7.9
2017-Jul-20 22:00N 29°45' E 122°22'0 0.1
2017-Jul-20 21:25N 29°45' E 122°22'0 0.2
2017-Jul-20 21:00N 29°45' E 122°22'1 2.6
2017-Jul-20 20:30N 29°44' E 122°22'5 9.1
2017-Jul-20 20:00N 29°43' E 122°27'814.4
2017-Jul-20 19:29N 29°41' E 122°35'914.8
2017-Jul-20 18:50N 29°47' E 122°44'616.0
2017-Jul-20 18:29N 29°51' E 122°49'816.0
2017-Jul-20 18:00N 29°56' E 122°55'815.9
2017-Jul-20 17:30N 30°01' E 123°02'1015.8
2017-Jul-20 16:50N 30°09' E 123°11'515.5
2017-Jul-20 16:31N 30°12' E 123°15'815.5
2017-Jul-20 16:01N 30°17' E 123°22'915.5
2017-Jul-20 15:26N 30°23' E 123°30'615.5
2017-Jul-20 15:01N 30°28' E 123°35'1515.3
2017-Jul-20 14:01N 30°38' E 123°49'815.5
2017-Jul-20 13:30N 30°43' E 123°55'915.5
2017-Jul-20 12:56N 30°49' E 124°03'915.1
2017-Jul-20 12:22N 30°55' E 124°10'615.2
2017-Jul-20 11:58N 30°59' E 124°16'715.3
2017-Jul-20 11:30N 31°04' E 124°22'815.7
2017-Jul-20 11:00N 31°09' E 124°28'815.9
2017-Jul-20 10:30N 31°15' E 124°35'816.1
2017-Jul-20 10:00N 31°20' E 124°42'815.2
2017-Jul-20 09:30N 31°25' E 124°49'151 3.3
2017-Jul-18 11:34N 33°36' E 126°18'  
Track history (hours):
 
Tides and Currents Weather Stations Pressure Air Temp Water Temp Dewpoint Dewpoint Depression Visibility Wind Speed Wind Dir Waves Ship Positions

MSC Bettina

Last reported at 2017-Jul-26 09:45 UTC. Time now 2017-Jul-27 18:26 UTC.
Position N 22°38' E 113°42'.

Length 366 m; draft 12.6 m.

Type: Ship (hazmat cat A). MMSI: 352361000.

Date/timePositionNaut miles runAvg speedWind from/ knotsBaromVisibWave heightAir tempDewpointWater temp
2017-Jul-26 09:45N 22°38' E 113°42'23110.6
2017-Jul-25 11:57N 23°30' E 117°46'1713.4
2017-Jul-25 10:41N 23°40' E 118°02'212.6
2017-Jul-25 10:30N 23°41' E 118°03'713.2
2017-Jul-25 10:00N 23°46' E 118°08'814.0
2017-Jul-25 09:25N 23°53' E 118°13'614.1
2017-Jul-25 09:00N 23°58' E 118°17'713.1
2017-Jul-25 08:30N 24°04' E 118°19'713.9
2017-Jul-25 08:00N 24°11' E 118°19'815.4
2017-Jul-25 07:30N 24°17' E 118°14'715.0
2017-Jul-25 07:00N 24°22' E 118°08'611.5
2017-Jul-25 06:30N 24°26' E 118°03'2 4.0
2017-Jul-25 06:00N 24°27' E 118°01'0 0.0
2017-Jul-25 05:30N 24°27' E 118°01'0 0.0
2017-Jul-25 05:00N 24°27' E 118°01'0 0.0
2017-Jul-25 04:30N 24°27' E 118°01'0 0.0
2017-Jul-25 04:00N 24°27' E 118°01'0 0.0
2017-Jul-25 03:30N 24°27' E 118°01'0 0.0
2017-Jul-25 03:00N 24°27' E 118°01'0 0.0
2017-Jul-25 02:30N 24°27' E 118°01'0 0.0
2017-Jul-25 02:00N 24°27' E 118°01'0 0.0
2017-Jul-25 01:30N 24°27' E 118°01'0 0.0
2017-Jul-25 01:00N 24°27' E 118°01'0 0.0
2017-Jul-25 00:30N 24°27' E 118°01'0 0.0
2017-Jul-25 00:00N 24°27' E 118°01'0 0.0
2017-Jul-24 23:30N 24°27' E 118°01'0 0.0
2017-Jul-24 23:00N 24°27' E 118°01'0 0.0
2017-Jul-24 22:27N 24°27' E 118°01'0 0.0
2017-Jul-24 22:00N 24°27' E 118°01'0 0.0
2017-Jul-24 21:30N 24°27' E 118°01'0 0.0
2017-Jul-24 21:00N 24°27' E 118°01'0 0.3
2017-Jul-24 20:31N 24°27' E 118°01'3 5.5
2017-Jul-24 20:01N 24°26' E 118°04'510.4
2017-Jul-24 19:31N 24°22' E 118°08'5 9.7
2017-Jul-24 19:00N 24°19' E 118°12'4 8.4
2017-Jul-24 18:30N 24°16' E 118°15'4 8.3
2017-Jul-24 18:00N 24°12' E 118°18'3 6.3
2017-Jul-24 17:30N 24°11' E 118°21'4 7.4
2017-Jul-24 17:00N 24°13' E 118°25'610.7
2017-Jul-24 16:28N 24°14' E 118°31'612.3
2017-Jul-24 16:00N 24°16' E 118°37'3612.0
2017-Jul-24 13:00N 24°35' E 119°11'712.7
2017-Jul-24 12:28N 24°39' E 119°16'612.5
2017-Jul-24 12:00N 24°43' E 119°21'612.8
2017-Jul-24 11:30N 24°48' E 119°26'612.7
2017-Jul-24 11:00N 24°52' E 119°31'612.9
2017-Jul-24 10:30N 24°56' E 119°36'713.4
2017-Jul-24 09:58N 25°01' E 119°42'714.1
2017-Jul-24 09:28N 25°06' E 119°47'813.9
2017-Jul-24 08:54N 25°12' E 119°54'614.2
2017-Jul-24 08:31N 25°16' E 119°58'23016.3
2017-Jul-23 18:25N 28°25' E 122°25'1118.1
2017-Jul-23 17:48N 28°34' E 122°32'618.9
2017-Jul-23 17:29N 28°40' E 122°35'1418.1
2017-Jul-23 16:43N 28°52' E 122°42'417.0
2017-Jul-23 16:29N 28°55' E 122°44'1017.8
2017-Jul-23 15:55N 29°04' E 122°50'1118.3
2017-Jul-23 15:19N 29°14' E 122°56'516.7
2017-Jul-23 15:00N 29°19' E 122°59'1117.7
2017-Jul-23 14:23N 29°28' E 123°05'2616.7
2017-Jul-23 12:48N 29°54' E 123°10'517.7
2017-Jul-23 12:30N 29°60' E 123°09'917.7
2017-Jul-23 12:00N 30°08' E 123°06'918.0
2017-Jul-23 11:30N 30°16' E 123°02'918.3
2017-Jul-23 11:00N 30°22' E 122°54'918.7
2017-Jul-23 10:30N 30°28' E 122°45'918.1
2017-Jul-23 10:00N 30°29' E 122°35'1019.4
2017-Jul-23 09:28N 30°32' E 122°23'715.0
2017-Jul-23 09:00N 30°33' E 122°15'816.2
2017-Jul-23 08:30N 30°36' E 122°06'3 4.9
2017-Jul-23 07:54N 30°37' E 122°04'0 0.0
2017-Jul-22 19:38N 30°37' E 122°04'0 0.0
2017-Jul-22 18:35N 30°37' E 122°04'0 0.6
2017-Jul-22 18:30N 30°37' E 122°04'1 2.1
2017-Jul-22 17:59N 30°37' E 122°04'2 5.1
2017-Jul-22 17:30N 30°35' E 122°07'510.4
2017-Jul-22 17:00N 30°34' E 122°13'4 7.3
2017-Jul-22 16:30N 30°33' E 122°17'4 7.5
2017-Jul-22 16:00N 30°34' E 122°21'1 3.0
2017-Jul-22 15:30N 30°34' E 122°23'2 3.3
2017-Jul-22 15:01N 30°33' E 122°25'5 4.5
2017-Jul-22 14:00N 30°33' E 122°30'1 2.5
2017-Jul-22 13:30N 30°32' E 122°31'2 4.4
2017-Jul-22 13:00N 30°31' E 122°33'4 7.9
2017-Jul-22 12:30N 30°30' E 122°38'4 7.6
2017-Jul-22 12:00N 30°30' E 122°42'4 7.0
2017-Jul-22 11:30N 30°28' E 122°46'4 7.1
2017-Jul-22 11:00N 30°26' E 122°49'3 6.5
2017-Jul-22 10:30N 30°23' E 122°51'3 6.3
2017-Jul-22 10:00N 30°20' E 122°53'3 6.0
2017-Jul-22 09:28N 30°18' E 122°55'4 6.2
2017-Jul-22 08:54N 30°15' E 122°58'3 7.2
2017-Jul-22 08:30N 30°13' E 123°00'3 6.8
2017-Jul-22 08:00N 30°10' E 123°01'3 5.9
2017-Jul-22 07:30N 30°07' E 122°60'3 6.0
2017-Jul-22 07:00N 30°05' E 122°58'3 6.1
2017-Jul-22 06:30N 30°02' E 122°56'3 6.1
2017-Jul-22 06:00N 29°60' E 122°54'3 6.0
2017-Jul-22 05:30N 29°57' E 122°52'3 6.2
2017-Jul-22 05:00N 29°55' E 122°50'3 6.5
2017-Jul-22 04:30N 29°52' E 122°47'3 6.9
2017-Jul-22 04:00N 29°49' E 122°45'4 7.2
2017-Jul-22 03:30N 29°47' E 122°42'4 7.0
2017-Jul-22 03:00N 29°44' E 122°39'4 7.5
2017-Jul-22 02:30N 29°42' E 122°36'3 6.6
2017-Jul-22 02:00N 29°41' E 122°32'4 7.3
2017-Jul-22 01:30N 29°42' E 122°28'612.7
2017-Jul-22 01:00N 29°43' E 122°21'510.9
2017-Jul-22 00:31N 29°47' E 122°16'510.6
2017-Jul-22 00:00N 29°51' E 122°12'612.1
2017-Jul-21 23:30N 29°55' E 122°08'5 9.3
2017-Jul-21 23:00N 29°54' E 122°03'0 0.7
2017-Jul-21 22:28N 29°54' E 122°02'0 0.0
2017-Jul-21 21:58N 29°54' E 122°02'0 0.0
2017-Jul-21 21:28N 29°54' E 122°02'0 0.0
2017-Jul-21 20:58N 29°54' E 122°02'0 0.0
2017-Jul-21 20:28N 29°54' E 122°02'0 0.0
2017-Jul-21 19:58N 29°54' E 122°02'0 0.0
2017-Jul-21 19:28N 29°54' E 122°02'0 0.0
2017-Jul-21 18:58N 29°54' E 122°02'0 0.0
2017-Jul-21 18:28N 29°54' E 122°02'0 0.0
2017-Jul-21 17:58N 29°54' E 122°02'0 0.0
2017-Jul-21 17:28N 29°54' E 122°02'0 0.0
2017-Jul-21 16:52N 29°54' E 122°02'0 0.0
2017-Jul-21 16:22N 29°54' E 122°02'0 0.0
2017-Jul-21 15:58N 29°54' E 122°02'0 0.0
2017-Jul-21 15:22N 29°54' E 122°02'0 0.0
2017-Jul-21 14:52N 29°54' E 122°02'0 0.0
2017-Jul-21 14:28N 29°54' E 122°02'0 0.0
2017-Jul-21 13:58N 29°54' E 122°02'0 0.0
2017-Jul-21 13:28N 29°54' E 122°02'0 0.0
2017-Jul-21 12:58N 29°54' E 122°02'0 0.0
2017-Jul-21 12:28N 29°54' E 122°02'0 0.0
2017-Jul-21 11:52N 29°54' E 122°02'0 0.0
2017-Jul-21 11:22N 29°54' E 122°02'0 0.0
2017-Jul-21 10:46N 29°54' E 122°02'0 0.0
2017-Jul-21 10:28N 29°54' E 122°02'0 0.0
2017-Jul-21 09:58N 29°54' E 122°02'0 0.0
2017-Jul-21 09:28N 29°54' E 122°02'0 0.0
2017-Jul-21 08:58N 29°54' E 122°02'0 0.0
2017-Jul-21 08:28N 29°54' E 122°02'0 0.0
2017-Jul-21 07:55N 29°54' E 122°02'0 0.0
2017-Jul-21 07:28N 29°54' E 122°02'0 0.0
2017-Jul-21 06:40N 29°54' E 122°02'0 0.0
2017-Jul-21 06:28N 29°54' E 122°02'0 0.0
2017-Jul-21 05:40N 29°54' E 122°02'0 0.0
2017-Jul-21 05:28N 29°54' E 122°02'0 0.0
2017-Jul-21 04:58N 29°54' E 122°02'0 0.0
2017-Jul-21 04:28N 29°54' E 122°02'0 0.0
2017-Jul-21 03:46N 29°54' E 122°02'0 0.0
2017-Jul-21 03:28N 29°54' E 122°02'0 0.0
2017-Jul-21 02:58N 29°54' E 122°02'0 0.0
2017-Jul-21 02:28N 29°54' E 122°02'0 0.0
2017-Jul-21 01:58N 29°54' E 122°02'0 0.0
2017-Jul-21 01:28N 29°54' E 122°02'0 0.0
2017-Jul-21 00:46N 29°54' E 122°02'0 0.0
2017-Jul-21 00:30N 29°54' E 122°02'1 1.7
2017-Jul-21 00:00N 29°54' E 122°03'4 8.7
2017-Jul-20 23:30N 29°55' E 122°08'612.3
2017-Jul-20 23:00N 29°51' E 122°12'612.1
2017-Jul-20 22:31N 29°46' E 122°17'4 7.9
2017-Jul-20 22:00N 29°45' E 122°22'0 0.1
2017-Jul-20 21:25N 29°45' E 122°22'0 0.2
2017-Jul-20 21:00N 29°45' E 122°22'1 2.6
2017-Jul-20 20:30N 29°44' E 122°22'5 9.1
2017-Jul-20 20:00N 29°43' E 122°27'814.4
2017-Jul-20 19:29N 29°41' E 122°35'914.8
2017-Jul-20 18:50N 29°47' E 122°44'616.0
2017-Jul-20 18:29N 29°51' E 122°49'816.0
2017-Jul-20 18:00N 29°56' E 122°55'815.9
2017-Jul-20 17:30N 30°01' E 123°02'1015.8
2017-Jul-20 16:50N 30°09' E 123°11'515.5
2017-Jul-20 16:31N 30°12' E 123°15'815.5
2017-Jul-20 16:01N 30°17' E 123°22'915.5
2017-Jul-20 15:26N 30°23' E 123°30'615.5
2017-Jul-20 15:01N 30°28' E 123°35'1515.3
2017-Jul-20 14:01N 30°38' E 123°49'815.5
2017-Jul-20 13:30N 30°43' E 123°55'915.5
2017-Jul-20 12:56N 30°49' E 124°03'915.1
2017-Jul-20 12:22N 30°55' E 124°10'615.2
2017-Jul-20 11:58N 30°59' E 124°16'715.3
2017-Jul-20 11:30N 31°04' E 124°22'815.7
2017-Jul-20 11:00N 31°09' E 124°28'815.9
2017-Jul-20 10:30N 31°15' E 124°35'816.1
2017-Jul-20 10:00N 31°20' E 124°42'815.2
2017-Jul-20 09:30N 31°25' E 124°49'151 3.3
2017-Jul-18 11:34N 33°36' E 126°18'  

Dump ship's entire track history